Time;durP1;ratioP1;P1;durP2;ratioP2;P2;SDS_P1;SDS_P2;PMS_P1;PMS_P2;Temp;Humidity;BMP_temperature;BMP_pressure;BME280_temperature;BME280_humidity;BME280_pressure;Samples;Min_cycle;Max_cycle;Signal;HPM_P1;HPM_P2
2022/02/19 00:01:05;;;;;;;18.40;3.87;;;21.50;73.00;;;;;;5074003;28;20198;-77
2022/02/19 00:03:32;;;;;;;22.67;4.37;;;21.50;72.90;;;;;;5070742;28;20206;-77
2022/02/19 00:05:59;;;;;;;17.60;3.97;;;21.50;73.10;;;;;;5072433;28;20172;-77
2022/02/19 00:08:27;;;;;;;16.17;3.83;;;21.50;72.80;;;;;;5071590;28;20567;-76
2022/02/19 00:10:54;;;;;;;19.87;3.60;;;21.50;73.20;;;;;;5073112;28;20505;-77
2022/02/19 00:13:22;;;;;;;25.20;4.90;;;21.70;72.90;;;;;;5072558;28;20190;-77
2022/02/19 00:15:50;;;;;;;16.80;4.17;;;21.60;72.40;;;;;;5073310;28;20178;-76
2022/02/19 00:18:17;;;;;;;15.80;3.50;;;21.50;72.70;;;;;;5072393;28;20176;-76
2022/02/19 00:20:44;;;;;;;20.83;3.97;;;21.60;72.60;;;;;;5071858;28;20189;-77
2022/02/19 00:23:12;;;;;;;16.77;4.13;;;21.60;72.90;;;;;;5072490;28;20269;-77
2022/02/19 00:25:39;;;;;;;17.43;3.97;;;21.60;72.70;;;;;;5065544;28;20183;-77
2022/02/19 00:28:06;;;;;;;26.00;5.10;;;21.60;72.70;;;;;;5072480;28;20185;-82
2022/02/19 00:30:34;;;;;;;16.17;3.80;;;21.60;72.50;;;;;;5071647;28;20185;-81
2022/02/19 00:33:01;;;;;;;29.10;4.83;;;21.70;72.70;;;;;;5072497;28;20644;-80
2022/02/19 00:35:29;;;;;;;20.70;4.07;;;21.70;72.30;;;;;;5073003;28;20171;-81
2022/02/19 00:37:56;;;;;;;20.20;4.90;;;21.80;72.50;;;;;;5072388;28;20176;-80
2022/02/19 00:40:23;;;;;;;22.80;4.87;;;21.80;72.00;;;;;;5071799;28;20192;-80
2022/02/19 00:42:50;;;;;;;20.80;3.97;;;21.90;71.60;;;;;;5072281;28;20272;-79
2022/02/19 00:45:18;;;;;;;21.77;3.27;;;21.90;72.00;;;;;;5072600;28;20512;-79
2022/02/19 00:47:45;;;;;;;17.53;3.80;;;21.90;71.90;;;;;;5072344;28;20656;-81
2022/02/19 00:50:13;;;;;;;19.03;3.97;;;22.00;71.90;;;;;;5073586;28;20195;-77
2022/02/19 00:52:40;;;;;;;19.13;3.83;;;22.00;71.90;;;;;;5090731;28;20231;-80
2022/02/19 00:55:09;;;;;;;19.43;3.97;;;21.80;72.20;;;;;;5089458;28;20171;-78
2022/02/19 00:57:36;;;;;;;18.10;3.90;;;21.80;72.40;;;;;;5088928;28;20175;-77
2022/02/19 01:00:06;;;;;;;22.93;4.87;;;21.80;72.40;;;;;;5084801;28;20518;-79
2022/02/19 01:02:34;;;;;;;21.30;4.10;;;21.70;72.70;;;;;;5070344;28;20274;-78
2022/02/19 01:05:01;;;;;;;15.00;3.27;;;21.80;73.00;;;;;;5073120;28;20287;-77
2022/02/19 01:07:28;;;;;;;17.73;3.60;;;21.70;73.50;;;;;;5072179;28;20171;-79
2022/02/19 01:09:55;;;;;;;15.23;4.20;;;21.70;73.40;;;;;;5071248;28;20184;-77
2022/02/19 01:12:23;;;;;;;16.00;4.07;;;21.60;73.50;;;;;;5070951;28;20529;-76
2022/02/19 01:14:50;;;;;;;16.77;4.33;;;21.70;73.50;;;;;;5072017;28;20250;-79
2022/02/19 01:17:17;;;;;;;19.10;3.67;;;21.60;73.30;;;;;;5069269;28;20179;-76
2022/02/19 01:19:45;;;;;;;14.57;3.77;;;21.70;73.20;;;;;;5070887;28;20528;-78
2022/02/19 01:22:12;;;;;;;18.20;3.80;;;21.80;73.50;;;;;;5070413;28;20541;-79
2022/02/19 01:24:39;;;;;;;20.97;3.90;;;21.90;72.50;;;;;;5070644;28;20203;-79
2022/02/19 01:27:07;;;;;;;17.63;4.20;;;21.90;72.40;;;;;;5071721;28;20175;-76
2022/02/19 01:29:35;;;;;;;16.63;3.53;;;21.90;72.50;;;;;;5069352;28;20190;-77
2022/02/19 01:32:02;;;;;;;17.70;3.90;;;21.90;72.70;;;;;;5072067;28;20190;-79
2022/02/19 01:34:29;;;;;;;16.50;3.33;;;21.90;72.60;;;;;;5071755;28;20244;-79
2022/02/19 01:36:56;;;;;;;20.83;3.60;;;22.10;72.40;;;;;;5067135;28;20197;-76
2022/02/19 01:39:24;;;;;;;15.83;3.43;;;22.10;71.90;;;;;;5071496;28;20198;-77
2022/02/19 01:41:51;;;;;;;21.67;3.50;;;22.10;71.30;;;;;;5067730;28;20290;-78
2022/02/19 01:44:19;;;;;;;18.83;3.53;;;22.10;71.40;;;;;;5067102;28;20265;-76
2022/02/19 01:47:10;;;;;;;19.17;3.87;;;22.20;71.60;;;;;;5066612;27;20554;-78
2022/02/19 01:49:37;;;;;;;16.37;3.47;;;22.30;71.40;;;;;;5067603;28;20213;-79
2022/02/19 01:52:07;;;;;;;18.63;3.60;;;22.40;70.80;;;;;;5065489;28;20183;-83
2022/02/19 01:54:34;;;;;;;20.90;3.33;;;22.50;70.30;;;;;;5067184;28;20246;-78
2022/02/19 01:57:02;;;;;;;15.20;3.40;;;22.50;69.40;;;;;;5068290;28;20179;-79
2022/02/19 01:59:30;;;;;;;18.50;3.70;;;22.50;69.50;;;;;;5067888;28;20687;-79
2022/02/19 02:01:58;;;;;;;17.43;3.03;;;22.60;69.00;;;;;;5065451;28;20195;-77
2022/02/19 02:04:25;;;;;;;20.67;3.40;;;22.70;68.80;;;;;;5068395;28;20673;-81
2022/02/19 02:06:53;;;;;;;13.67;2.83;;;22.80;68.20;;;;;;5069028;28;20276;-78
2022/02/19 02:09:21;;;;;;;17.60;3.60;;;22.90;68.10;;;;;;5066556;28;20180;-77
2022/02/19 02:11:49;;;;;;;17.13;3.40;;;22.90;68.40;;;;;;5069538;28;20270;-78
2022/02/19 02:14:16;;;;;;;14.60;3.23;;;23.10;67.80;;;;;;5073355;28;20180;-82
2022/02/19 02:16:45;;;;;;;14.30;3.43;;;23.00;67.50;;;;;;5074839;28;20210;-78
2022/02/19 02:19:14;;;;;;;18.17;3.57;;;22.90;68.00;;;;;;5071351;28;20650;-79
2022/02/19 02:21:42;;;;;;;14.23;3.30;;;23.00;68.80;;;;;;5068297;28;20183;-79
2022/02/19 02:24:10;;;;;;;17.57;3.13;;;23.20;68.50;;;;;;5068626;28;20179;-77
2022/02/19 02:26:40;;;;;;;15.50;3.17;;;23.20;68.00;;;;;;5068092;28;20219;-78
2022/02/19 02:29:08;;;;;;;15.83;3.13;;;23.50;67.00;;;;;;5066384;28;20174;-79
2022/02/19 02:31:35;;;;;;;18.80;3.47;;;23.70;65.80;;;;;;5062427;28;20190;-79
2022/02/19 02:34:03;;;;;;;21.17;4.07;;;23.80;65.70;;;;;;5066770;28;20187;-78
2022/02/19 02:36:30;;;;;;;22.50;4.37;;;24.00;65.40;;;;;;5067425;28;20819;-79
2022/02/19 02:38:58;;;;;;;14.57;3.60;;;24.30;64.20;;;;;;5067627;28;20183;-80
2022/02/19 02:41:26;;;;;;;13.60;3.20;;;24.50;63.30;;;;;;5067135;28;20235;-79
2022/02/19 02:43:53;;;;;;;15.63;3.23;;;24.80;62.00;;;;;;5067070;28;20707;-79
2022/02/19 02:46:20;;;;;;;14.87;3.43;;;24.90;61.70;;;;;;5067282;28;20247;-85
2022/02/19 02:48:48;;;;;;;14.40;3.60;;;24.80;61.40;;;;;;5063256;28;20590;-78
2022/02/19 02:51:15;;;;;;;14.03;3.57;;;24.90;61.80;;;;;;5065619;28;20269;-82
2022/02/19 02:53:43;;;;;;;11.70;2.90;;;25.10;61.20;;;;;;5067450;28;20190;-78
2022/02/19 02:56:10;;;;;;;15.77;3.43;;;25.10;61.30;;;;;;5066539;28;20260;-80
2022/02/19 02:58:37;;;;;;;17.70;3.63;;;24.90;61.80;;;;;;5053404;28;20277;-79
2022/02/19 03:01:05;;;;;;;18.17;3.73;;;25.20;62.10;;;;;;5053289;28;20195;-81
2022/02/19 03:03:33;;;;;;;13.40;3.10;;;25.30;61.30;;;;;;5052585;28;20637;-78
2022/02/19 03:06:02;;;;;;;11.10;2.87;;;25.30;62.00;;;;;;5054406;28;20237;-79
2022/02/19 03:08:30;;;;;;;16.53;2.80;;;25.20;61.10;;;;;;5053506;28;20210;-78
2022/02/19 03:10:57;;;;;;;14.37;3.07;;;24.90;61.90;;;;;;5052774;28;20759;-78
2022/02/19 03:13:24;;;;;;;17.03;3.33;;;24.90;61.70;;;;;;5052594;28;20529;-77
2022/02/19 03:15:52;;;;;;;12.63;2.67;;;24.90;62.00;;;;;;5053889;28;20192;-77
2022/02/19 03:18:19;;;;;;;16.57;3.67;;;24.80;62.80;;;;;;5052626;28;20267;-77
2022/02/19 03:20:48;;;;;;;19.07;3.80;;;24.60;63.00;;;;;;5052760;28;20188;-77
2022/02/19 03:23:15;;;;;;;13.97;5.53;;;24.70;62.90;;;;;;5051716;28;20238;-78
2022/02/19 03:25:43;;;;;;;14.17;3.20;;;24.90;62.90;;;;;;5053669;28;20231;-80
2022/02/19 03:28:10;;;;;;;8.60;2.30;;;24.90;62.70;;;;;;5052447;28;20258;-80
2022/02/19 03:30:38;;;;;;;16.97;3.23;;;25.10;61.70;;;;;;5052240;28;20196;-78
2022/02/19 03:33:05;;;;;;;15.13;3.23;;;24.90;62.70;;;;;;5052161;28;20655;-80
2022/02/19 03:35:32;;;;;;;19.27;3.63;;;25.10;61.70;;;;;;5052854;28;20202;-78
2022/02/19 03:38:00;;;;;;;13.23;2.80;;;25.00;62.30;;;;;;5053490;28;20192;-78
2022/02/19 03:40:27;;;;;;;16.87;3.70;;;25.00;61.60;;;;;;5053598;28;20176;-82
2022/02/19 03:42:55;;;;;;;12.83;3.43;;;24.80;62.00;;;;;;5047291;28;20188;-80
2022/02/19 03:45:22;;;;;;;14.83;3.07;;;24.70;62.50;;;;;;5053004;28;20315;-82
2022/02/19 03:47:49;;;;;;;14.63;3.27;;;24.40;63.30;;;;;;5051640;28;20192;-78
2022/02/19 03:50:17;;;;;;;16.40;3.80;;;24.20;64.30;;;;;;5052409;28;20180;-76
2022/02/19 03:52:48;;;;;;;12.17;2.80;;;24.10;65.50;;;;;;5054174;28;20180;-78
2022/02/19 03:55:18;;;;;;;18.80;3.47;;;23.80;66.40;;;;;;5053294;28;20180;-77
2022/02/19 03:57:45;;;;;;;14.57;3.20;;;23.40;69.10;;;;;;5053681;28;20188;-77
2022/02/19 04:00:13;;;;;;;11.20;3.07;;;22.90;71.00;;;;;;5051592;28;20180;-82
2022/02/19 04:02:43;;;;;;;15.70;2.90;;;22.80;71.40;;;;;;5053267;28;20654;-78
2022/02/19 04:05:12;;;;;;;11.90;3.23;;;22.80;73.10;;;;;;5053225;28;20208;-82
2022/02/19 04:07:39;;;;;;;15.50;2.80;;;22.50;76.30;;;;;;5053091;28;20259;-87
2022/02/19 04:10:09;;;;;;;13.53;3.23;;;22.40;77.80;;;;;;5051895;28;20219;-86
2022/02/19 04:12:37;;;;;;;15.13;2.90;;;22.40;79.20;;;;;;5048716;28;20180;-83
2022/02/19 04:15:05;;;;;;;14.90;3.13;;;22.30;79.20;;;;;;5052490;28;20180;-82
2022/02/19 04:17:32;;;;;;;13.83;3.23;;;22.30;78.90;;;;;;5052958;28;20235;-84
2022/02/19 04:20:00;;;;;;;14.70;3.23;;;22.30;77.90;;;;;;5053563;28;20180;-83
2022/02/19 04:22:27;;;;;;;17.83;3.40;;;22.30;78.60;;;;;;5053844;28;20180;-82
2022/02/19 04:24:55;;;;;;;16.77;3.33;;;22.40;77.90;;;;;;5052971;28;20275;-85
2022/02/19 04:27:22;;;;;;;15.77;3.43;;;22.50;78.20;;;;;;5051038;28;20871;-87
2022/02/19 04:29:50;;;;;;;11.80;3.27;;;22.50;77.00;;;;;;5050510;28;20215;-83
2022/02/19 04:32:17;;;;;;;16.17;3.10;;;22.70;75.80;;;;;;5052561;28;20263;-83
2022/02/19 04:34:44;;;;;;;16.63;3.30;;;22.80;74.90;;;;;;5053005;28;20264;-81
2022/02/19 04:37:11;;;;;;;13.67;3.13;;;22.80;74.70;;;;;;5052121;28;20176;-81
2022/02/19 04:39:39;;;;;;;13.93;3.60;;;22.90;74.40;;;;;;5052926;28;20210;-81
2022/02/19 04:42:06;;;;;;;12.57;2.67;;;23.00;74.20;;;;;;5052146;28;20528;-87
2022/02/19 04:44:34;;;;;;;14.50;3.47;;;23.00;71.90;;;;;;5051455;28;20205;-83
2022/02/19 04:47:01;;;;;;;17.33;3.37;;;23.00;71.40;;;;;;5051496;28;20294;-81
2022/02/19 04:49:28;;;;;;;12.97;3.37;;;23.10;71.60;;;;;;5052742;28;20190;-81
2022/02/19 04:51:56;;;;;;;17.20;3.80;;;23.20;70.60;;;;;;5052318;28;20578;-81
2022/02/19 04:54:23;;;;;;;12.23;2.93;;;23.30;69.80;;;;;;5052790;28;20253;-81
2022/02/19 04:56:50;;;;;;;16.10;3.47;;;23.30;69.60;;;;;;5052552;28;20183;-81
2022/02/19 04:59:18;;;;;;;16.40;3.37;;;23.30;68.40;;;;;;5051470;28;20191;-81
2022/02/19 05:01:48;;;;;;;14.53;3.00;;;23.30;68.30;;;;;;5052629;28;20180;-81
2022/02/19 05:04:17;;;;;;;20.30;3.40;;;23.20;67.90;;;;;;5052761;28;20180;-80
2022/02/19 05:06:44;;;;;;;17.30;3.43;;;23.30;68.00;;;;;;5052385;28;20564;-78
2022/02/19 05:09:12;;;;;;;16.80;3.47;;;23.30;67.50;;;;;;5052572;28;20172;-79
2022/02/19 05:11:39;;;;;;;16.90;3.07;;;23.20;68.10;;;;;;5052363;28;20578;-80
2022/02/19 05:14:06;;;;;;;13.73;2.83;;;23.20;67.60;;;;;;5052447;28;20233;-79
2022/02/19 05:16:34;;;;;;;14.40;2.90;;;23.30;67.60;;;;;;5052661;28;20310;-80
2022/02/19 05:19:01;;;;;;;12.70;2.70;;;23.30;66.80;;;;;;5052193;28;20180;-80
2022/02/19 05:21:29;;;;;;;11.60;2.73;;;23.50;67.40;;;;;;5052259;28;20188;-81
2022/02/19 05:23:59;;;;;;;12.93;2.70;;;23.50;67.20;;;;;;5052742;28;20195;-80
2022/02/19 05:26:26;;;;;;;16.00;3.73;;;23.40;67.10;;;;;;5052230;28;20211;-80
2022/02/19 05:28:54;;;;;;;15.30;3.73;;;23.30;67.00;;;;;;5046354;28;20200;-79
2022/02/19 05:31:21;;;;;;;16.00;3.53;;;23.30;67.00;;;;;;5052632;28;20184;-81
2022/02/19 05:33:48;;;;;;;16.33;3.80;;;23.30;67.00;;;;;;5051746;28;20209;-80
2022/02/19 05:36:16;;;;;;;16.40;3.70;;;23.30;67.20;;;;;;5052335;28;20649;-75
2022/02/19 05:38:43;;;;;;;14.67;2.67;;;23.20;67.40;;;;;;5049183;28;20184;-78
2022/02/19 05:41:11;;;;;;;15.70;3.37;;;23.10;67.60;;;;;;5050886;28;20183;-78
2022/02/19 05:43:38;;;;;;;17.37;3.37;;;23.10;67.80;;;;;;5051688;28;20348;-79
2022/02/19 05:46:05;;;;;;;13.07;3.20;;;23.00;68.10;;;;;;5051736;28;20267;-77
2022/02/19 05:48:33;;;;;;;13.63;2.50;;;23.00;68.40;;;;;;5051742;28;20183;-79
2022/02/19 05:51:00;;;;;;;14.83;2.97;;;22.90;68.40;;;;;;5051838;28;20210;-78
2022/02/19 05:53:28;;;;;;;12.37;2.90;;;22.90;68.40;;;;;;5051234;28;20180;-78
2022/02/19 05:55:55;;;;;;;17.60;3.20;;;22.80;68.90;;;;;;5051574;28;20219;-76
2022/02/19 05:58:22;;;;;;;14.47;3.13;;;22.90;68.60;;;;;;5051564;28;20645;-77
2022/02/19 06:00:50;;;;;;;19.40;3.27;;;22.90;68.80;;;;;;5051974;28;20176;-79
2022/02/19 06:03:17;;;;;;;23.00;3.47;;;22.80;68.50;;;;;;5051473;28;20222;-78
2022/02/19 06:05:45;;;;;;;12.80;3.07;;;22.80;68.60;;;;;;5051605;28;20669;-78
2022/02/19 06:08:12;;;;;;;21.00;3.50;;;22.80;68.70;;;;;;5051826;28;20234;-78
2022/02/19 06:10:39;;;;;;;16.20;2.83;;;22.80;68.30;;;;;;5048123;28;20253;-78
2022/02/19 06:13:07;;;;;;;13.87;2.73;;;22.80;68.70;;;;;;5048816;28;20242;-78
2022/02/19 06:15:34;;;;;;;11.40;2.47;;;22.80;68.20;;;;;;5051366;28;20581;-77
2022/02/19 06:18:02;;;;;;;14.00;3.17;;;22.80;68.00;;;;;;5048087;28;20207;-78
2022/02/19 06:20:29;;;;;;;19.30;3.50;;;22.80;68.40;;;;;;5049477;28;20250;-79
2022/02/19 06:23:01;;;;;;;9.73;2.50;;;22.70;68.20;;;;;;5050046;28;20176;-78
2022/02/19 06:25:29;;;;;;;15.80;3.20;;;22.80;68.80;;;;;;5051102;28;20566;-80
2022/02/19 06:27:56;;;;;;;21.30;3.07;;;22.80;68.10;;;;;;5045674;28;20181;-78
2022/02/19 06:30:24;;;;;;;19.03;3.00;;;22.80;67.40;;;;;;5051497;28;20180;-78
2022/02/19 06:32:51;;;;;;;15.43;3.33;;;22.80;66.90;;;;;;5053029;28;20242;-78
2022/02/19 06:35:19;;;;;;;12.17;2.90;;;22.80;67.30;;;;;;5054966;28;20180;-79
2022/02/19 06:37:47;;;;;;;13.27;2.67;;;22.80;66.60;;;;;;5054623;28;20187;-78
2022/02/19 06:40:16;;;;;;;12.33;3.00;;;22.80;65.50;;;;;;5054282;28;20180;-79
2022/02/19 06:42:45;;;;;;;12.80;3.10;;;22.80;65.90;;;;;;5053839;28;20727;-78
2022/02/19 06:45:12;;;;;;;15.17;3.23;;;22.80;66.10;;;;;;5053359;28;20227;-78
2022/02/19 06:47:40;;;;;;;12.83;3.13;;;22.80;66.00;;;;;;5054649;28;20267;-78
2022/02/19 06:50:11;;;;;;;16.43;3.47;;;22.80;65.90;;;;;;5053737;28;20176;-79
2022/02/19 06:52:38;;;;;;;13.97;2.97;;;22.90;65.90;;;;;;5054592;28;20187;-78
2022/02/19 06:55:06;;;;;;;14.03;2.67;;;22.80;65.40;;;;;;5054125;28;20188;-77
2022/02/19 06:57:36;;;;;;;9.90;2.47;;;22.90;64.80;;;;;;5054633;28;20184;-76
2022/02/19 07:00:06;;;;;;;12.83;3.13;;;22.80;64.70;;;;;;5053871;28;20198;-76
2022/02/19 07:02:33;;;;;;;15.17;3.00;;;22.90;65.70;;;;;;5052397;28;20168;-78
2022/02/19 07:05:01;;;;;;;15.70;3.43;;;22.90;65.00;;;;;;5054113;28;20176;-77
2022/02/19 07:07:28;;;;;;;15.90;3.80;;;22.90;64.90;;;;;;5053891;28;20782;-78
2022/02/19 07:09:56;;;;;;;17.27;4.30;;;22.90;64.70;;;;;;5054050;28;20710;-79
2022/02/19 07:12:23;;;;;;;17.27;4.50;;;22.90;64.90;;;;;;5054415;28;20235;-79
2022/02/19 07:14:51;;;;;;;16.17;5.90;;;22.90;64.70;;;;;;5054684;28;20203;-79
2022/02/19 07:17:18;;;;;;;14.93;3.93;;;22.90;64.80;;;;;;5053150;28;20184;-78
2022/02/19 07:19:45;;;;;;;15.87;3.73;;;22.90;64.70;;;;;;5053881;28;20259;-79
2022/02/19 07:22:13;;;;;;;15.27;3.30;;;22.90;64.90;;;;;;5051481;28;20266;-80
2022/02/19 07:24:40;;;;;;;19.77;3.73;;;22.80;64.80;;;;;;5054150;28;20172;-78
2022/02/19 07:27:08;;;;;;;15.57;3.90;;;22.80;64.80;;;;;;5051098;28;20638;-78
2022/02/19 07:29:36;;;;;;;22.73;3.97;;;22.80;65.40;;;;;;5047276;28;20176;-79
2022/02/19 07:32:04;;;;;;;13.43;2.93;;;22.80;64.90;;;;;;5053771;28;20172;-79
2022/02/19 07:34:31;;;;;;;17.67;3.60;;;22.80;65.20;;;;;;5048064;28;20233;-78
2022/02/19 07:36:58;;;;;;;22.93;3.90;;;22.80;65.20;;;;;;5053101;28;20187;-79
2022/02/19 07:39:26;;;;;;;15.57;3.93;;;22.80;65.30;;;;;;5052639;28;20538;-79
2022/02/19 07:41:53;;;;;;;18.23;3.80;;;22.80;65.40;;;;;;5050223;28;20203;-79
2022/02/19 07:44:20;;;;;;;18.57;3.13;;;22.80;66.00;;;;;;5053574;28;20718;-78
2022/02/19 07:46:48;;;;;;;17.00;3.17;;;22.80;65.10;;;;;;5052601;28;20231;-79
2022/02/19 08:00:30;;;;;;;14.77;3.77;;;22.80;66.10;;;;;;5018104;28;20712;-80
2022/02/19 08:02:57;;;;;;;21.87;9.87;;;22.80;66.40;;;;;;5053616;28;20184;-78
2022/02/19 08:05:24;;;;;;;9.30;3.77;;;22.80;66.20;;;;;;5053503;28;20211;-78
2022/02/19 08:07:52;;;;;;;17.70;3.47;;;22.80;65.70;;;;;;5053225;28;20180;-79
2022/02/19 08:10:19;;;;;;;15.80;4.07;;;22.70;65.90;;;;;;5053053;28;20650;-78
2022/02/19 08:12:46;;;;;;;12.03;2.80;;;22.70;65.70;;;;;;5053371;28;20191;-78
2022/02/19 08:15:14;;;;;;;12.10;3.10;;;22.70;65.80;;;;;;5053119;28;20237;-78
2022/02/19 08:17:41;;;;;;;13.07;3.53;;;22.70;66.30;;;;;;5052952;28;20180;-78
2022/02/19 08:20:09;;;;;;;10.77;3.20;;;22.70;66.60;;;;;;5052779;28;20180;-79
2022/02/19 08:22:36;;;;;;;14.67;3.40;;;22.60;66.60;;;;;;5052566;28;20187;-78
2022/02/19 08:25:04;;;;;;;19.00;3.53;;;22.60;66.90;;;;;;5051578;28;20191;-77
2022/02/19 08:27:35;;;;;;;13.50;3.40;;;22.60;67.20;;;;;;5044150;28;20229;-79
2022/02/19 08:30:04;;;;;;;26.17;7.20;;;22.60;66.60;;;;;;5050001;28;20272;-78
2022/02/19 08:32:31;;;;;;;12.47;4.83;;;22.60;65.80;;;;;;5067881;28;20669;-78
2022/02/19 08:34:59;;;;;;;13.83;3.00;;;22.60;65.30;;;;;;5052587;28;20590;-78
2022/02/19 08:37:26;;;;;;;18.90;2.57;;;22.60;64.40;;;;;;5052387;28;20183;-81
2022/02/19 08:39:57;;;;;;;9.87;2.70;;;22.60;63.80;;;;;;5051916;28;20622;-79
2022/02/19 08:42:25;;;;;;;10.93;2.57;;;22.60;63.60;;;;;;5052450;28;20183;-79
2022/02/19 08:44:52;;;;;;;17.53;3.47;;;22.60;63.10;;;;;;5052651;28;20262;-78
2022/02/19 08:47:20;;;;;;;13.87;2.70;;;22.60;62.90;;;;;;5052175;28;20204;-79
2022/02/19 08:49:48;;;;;;;12.03;2.47;;;22.60;62.80;;;;;;5051235;28;20538;-78
2022/02/19 08:52:15;;;;;;;11.87;2.30;;;22.60;62.50;;;;;;5050653;28;20272;-77
2022/02/19 08:54:43;;;;;;;13.17;2.67;;;22.60;61.90;;;;;;5052536;28;20176;-78
2022/02/19 08:57:10;;;;;;;11.67;2.47;;;22.60;62.20;;;;;;5050902;28;20176;-78
2022/02/19 08:59:37;;;;;;;10.97;2.63;;;22.60;62.10;;;;;;5052573;28;20574;-77
2022/02/19 09:02:08;;;;;;;13.00;2.73;;;22.60;61.80;;;;;;5052387;28;20240;-78
2022/02/19 09:04:38;;;;;;;14.93;3.17;;;22.60;61.70;;;;;;5051893;28;20783;-79
2022/02/19 09:07:06;;;;;;;17.40;3.17;;;22.60;61.90;;;;;;5059624;28;20200;-78
2022/02/19 09:09:36;;;;;;;11.10;3.27;;;22.60;61.80;;;;;;5051103;28;20704;-78
2022/02/19 09:12:05;;;;;;;13.20;2.77;;;22.60;61.90;;;;;;5050892;28;20190;-78
2022/02/19 09:14:33;;;;;;;15.63;3.10;;;22.60;62.20;;;;;;5050894;28;20176;-79
2022/02/19 09:17:00;;;;;;;10.67;3.23;;;22.60;62.10;;;;;;5050513;28;20227;-79
2022/02/19 09:19:30;;;;;;;11.87;2.70;;;22.60;62.10;;;;;;5049147;28;20172;-77
2022/02/19 09:21:58;;;;;;;11.80;2.67;;;22.60;62.00;;;;;;5052132;28;20267;-79
2022/02/19 09:24:25;;;;;;;15.90;2.97;;;22.60;62.10;;;;;;5052454;28;20199;-77
2022/02/19 09:26:52;;;;;;;7.17;2.23;;;22.60;61.90;;;;;;5052106;28;20265;-79
2022/02/19 09:29:20;;;;;;;10.10;2.80;;;22.60;62.10;;;;;;5044789;28;20843;-77
2022/02/19 09:31:47;;;;;;;13.47;2.97;;;22.60;62.10;;;;;;5052340;28;20714;-78
2022/02/19 09:34:15;;;;;;;11.07;2.77;;;22.60;62.20;;;;;;5048126;28;20184;-78
2022/02/19 09:36:42;;;;;;;10.17;2.50;;;22.60;62.30;;;;;;5051197;28;20622;-79
2022/02/19 09:39:09;;;;;;;9.33;2.27;;;22.60;62.00;;;;;;5048598;28;20183;-77
2022/02/19 09:41:37;;;;;;;15.40;2.50;;;22.60;62.00;;;;;;5050498;28;20185;-79
2022/02/19 09:44:05;;;;;;;14.23;2.73;;;22.60;62.30;;;;;;5051514;28;20180;-80
2022/02/19 09:46:33;;;;;;;19.23;9.23;;;22.60;62.20;;;;;;5051782;28;20693;-79
2022/02/19 09:49:04;;;;;;;14.67;3.40;;;22.60;62.10;;;;;;5051258;28;20183;-79
2022/02/19 09:51:32;;;;;;;15.90;2.63;;;22.60;62.10;;;;;;5051345;28;20230;-77
2022/02/19 09:54:00;;;;;;;14.40;2.77;;;22.60;61.90;;;;;;5050749;28;20198;-79
2022/02/19 09:56:30;;;;;;;14.57;3.07;;;22.60;62.00;;;;;;5050298;28;20668;-78
2022/02/19 09:59:00;;;;;;;9.73;2.27;;;22.60;61.80;;;;;;5051165;28;20211;-78
2022/02/19 10:01:28;;;;;;;10.87;2.60;;;22.60;61.90;;;;;;5083709;28;20187;-77
2022/02/19 10:04:01;;;;;;;14.97;6.80;;;22.60;62.00;;;;;;5051853;28;20483;-77
2022/02/19 10:06:39;;;;;;;14.53;5.97;;;22.60;62.00;;;;;;5051360;28;20310;-76
2022/02/19 10:09:09;;;;;;;11.30;3.03;;;22.60;62.10;;;;;;5055024;28;20221;-78
2022/02/19 10:11:38;;;;;;;12.60;2.90;;;22.60;62.00;;;;;;5053630;28;20176;-78
2022/02/19 10:14:31;;;;;;;10.87;2.87;;;22.60;62.20;;;;;;5054461;28;20259;-77
2022/02/19 10:17:17;;;;;;;11.90;2.60;;;22.60;62.40;;;;;;5051586;28;20286;-78
2022/02/19 10:20:02;;;;;;;10.57;3.10;;;22.60;62.50;;;;;;5053872;28;20179;-76
2022/02/19 10:22:31;;;;;;;14.60;2.73;;;22.70;62.40;;;;;;5054959;28;20218;-77
2022/02/19 10:25:06;;;;;;;13.33;2.97;;;22.60;62.60;;;;;;5050056;28;20253;-77
2022/02/19 10:27:45;;;;;;;14.07;2.87;;;22.70;62.80;;;;;;5050428;28;20199;-78
2022/02/19 10:30:16;;;;;;;14.57;4.17;;;22.60;62.90;;;;;;5051819;28;20313;-78
2022/02/19 10:32:49;;;;;;;16.67;5.40;;;22.60;63.00;;;;;;5053096;28;20195;-79
2022/02/19 10:35:17;;;;;;;15.00;2.87;;;22.60;63.10;;;;;;5054753;28;20589;-77
2022/02/19 10:37:46;;;;;;;11.37;2.40;;;22.60;63.00;;;;;;5051311;28;20918;-79
2022/02/19 10:40:27;;;;;;;11.00;2.47;;;22.60;62.70;;;;;;5054117;28;20183;-80
2022/02/19 10:42:57;;;;;;;12.30;2.87;;;22.60;62.70;;;;;;5052092;28;20649;-79
2022/02/19 10:45:26;;;;;;;15.13;3.17;;;22.60;62.60;;;;;;5054512;28;20623;-78
2022/02/19 10:48:10;;;;;;;9.43;2.50;;;22.60;62.60;;;;;;5055099;28;20514;-77
2022/02/19 10:50:37;;;;;;;11.67;2.57;;;22.60;62.60;;;;;;5053092;28;20202;-79
2022/02/19 10:53:05;;;;;;;9.90;2.10;;;22.60;62.80;;;;;;5054216;28;20183;-78
2022/02/19 10:55:33;;;;;;;10.17;2.80;;;22.60;62.90;;;;;;5055180;28;20191;-79
2022/02/19 10:58:04;;;;;;;13.67;2.97;;;22.50;63.00;;;;;;5054864;28;20184;-77
2022/02/19 11:00:35;;;;;;;13.37;5.23;;;22.60;63.40;;;;;;5052024;28;20300;-80
2022/02/19 11:03:09;;;;;;;22.63;6.80;;;22.50;63.50;;;;;;5052379;28;20184;-79
2022/02/19 11:05:37;;;;;;;10.57;2.40;;;22.60;63.60;;;;;;5052144;28;20203;-80
2022/02/19 11:08:05;;;;;;;11.83;2.40;;;22.60;63.70;;;;;;5054312;28;20637;-79
2022/02/19 11:10:33;;;;;;;12.30;2.60;;;22.50;64.10;;;;;;5053605;28;20184;-79
2022/02/19 11:13:04;;;;;;;18.83;3.43;;;22.50;63.90;;;;;;5053937;28;20176;-78
2022/02/19 11:15:32;;;;;;;11.57;2.77;;;22.50;63.80;;;;;;5051436;28;20263;-79
2022/02/19 11:18:00;;;;;;;9.23;2.10;;;22.50;63.80;;;;;;5053595;28;20172;-79
2022/02/19 11:20:27;;;;;;;12.03;2.13;;;22.50;63.90;;;;;;5054333;28;20561;-79
2022/02/19 11:22:57;;;;;;;13.97;2.87;;;22.50;63.90;;;;;;5053618;28;20176;-80
2022/02/19 11:25:25;;;;;;;13.37;3.20;;;22.50;64.10;;;;;;5053180;28;20250;-80
2022/02/19 11:28:11;;;;;;;14.80;2.60;;;22.50;64.50;;;;;;5051202;28;20188;-79
2022/02/19 11:30:55;;;;;;;13.93;2.70;;;22.50;64.20;;;;;;5050801;28;20186;-80
2022/02/19 11:33:24;;;;;;;13.40;2.40;;;22.50;64.30;;;;;;5053128;28;20179;-79
2022/02/19 11:35:52;;;;;;;13.57;2.70;;;22.50;64.50;;;;;;5049331;28;20180;-80
2022/02/19 11:38:32;;;;;;;13.17;2.33;;;22.50;64.80;;;;;;5053531;28;20180;-80
2022/02/19 11:41:02;;;;;;;12.40;2.80;;;22.50;64.50;;;;;;5050721;28;20199;-79
2022/02/19 11:43:37;;;;;;;14.40;2.80;;;22.50;64.40;;;;;;5053005;28;20180;-80
2022/02/19 11:46:25;;;;;;;11.87;2.60;;;22.40;64.60;;;;;;5053859;28;20219;-79
2022/02/19 11:48:52;;;;;;;17.50;3.00;;;22.50;64.70;;;;;;5047394;28;20932;-79
2022/02/19 11:51:24;;;;;;;11.10;2.10;;;22.50;65.30;;;;;;5054209;28;20689;-78
2022/02/19 11:54:14;;;;;;;16.53;2.37;;;22.40;65.20;;;;;;5054118;28;20180;-79
2022/02/19 11:56:43;;;;;;;11.10;2.60;;;22.40;64.90;;;;;;5053215;28;20234;-79
2022/02/19 11:59:15;;;;;;;10.53;2.20;;;22.50;64.60;;;;;;5052160;28;20191;-80
2022/02/19 12:01:47;;;;;;;8.97;2.27;;;22.50;64.40;;;;;;5053738;28;20789;-78
2022/02/19 12:04:18;;;;;;;17.30;2.77;;;22.50;64.30;;;;;;5052802;28;20180;-80
2022/02/19 12:06:47;;;;;;;12.80;2.23;;;22.50;64.80;;;;;;5052908;28;20223;-79
2022/02/19 12:09:16;;;;;;;20.47;2.93;;;22.50;65.00;;;;;;5052971;28;20249;-79
2022/02/19 12:12:04;;;;;;;23.67;10.23;;;22.50;65.20;;;;;;5053224;28;20251;-81
2022/02/19 12:14:50;;;;;;;17.73;6.60;;;22.40;65.60;;;;;;5050183;28;20182;-79
2022/02/19 12:17:22;;;;;;;13.80;3.10;;;22.50;65.70;;;;;;5052833;28;20176;-79
2022/02/19 12:19:58;;;;;;;12.83;2.47;;;22.50;65.70;;;;;;5053190;28;20579;-79
2022/02/19 12:22:31;;;;;;;16.67;2.60;;;22.40;65.70;;;;;;5052506;28;20207;-82
2022/02/19 12:24:59;;;;;;;14.83;2.43;;;22.50;66.00;;;;;;5049425;28;20169;-80
2022/02/19 12:27:27;;;;;;;15.20;2.87;;;22.50;65.70;;;;;;5049512;28;20172;-79
2022/02/19 12:30:23;;;;;;;12.97;2.77;;;22.40;65.80;;;;;;5051927;28;20231;-79
2022/02/19 12:33:01;;;;;;;11.60;2.60;;;22.40;65.60;;;;;;5050748;28;20210;-79
2022/02/19 12:35:40;;;;;;;14.13;2.70;;;22.50;65.50;;;;;;5052990;28;20233;-79
2022/02/19 12:38:07;;;;;;;12.40;2.73;;;22.50;65.40;;;;;;5052763;28;20180;-79
2022/02/19 12:40:35;;;;;;;13.67;2.37;;;22.50;65.60;;;;;;5052642;28;20188;-78
2022/02/19 12:43:03;;;;;;;13.10;2.47;;;22.50;65.50;;;;;;5052737;28;20186;-79
2022/02/19 12:45:34;;;;;;;14.23;4.47;;;22.50;65.60;;;;;;5050573;28;20255;-80
2022/02/19 12:48:02;;;;;;;18.50;4.73;;;22.50;65.80;;;;;;5053285;28;20168;-79
2022/02/19 12:50:30;;;;;;;11.43;2.20;;;22.50;65.70;;;;;;5049186;28;20220;-78
2022/02/19 12:52:57;;;;;;;10.37;2.03;;;22.50;66.30;;;;;;5050367;28;20279;-78
2022/02/19 12:55:24;;;;;;;16.37;3.00;;;22.50;66.10;;;;;;5051859;28;20179;-79
2022/02/19 12:57:59;;;;;;;13.10;2.87;;;22.50;66.00;;;;;;5048331;28;20579;-79